Time;durP1;ratioP1;P1;durP2;ratioP2;P2;SDS_P1;SDS_P2;PMS_P1;PMS_P2;Temp;Humidity;BMP_temperature;BMP_pressure;BME280_temperature;BME280_humidity;BME280_pressure;Samples;Min_cycle;Max_cycle;Signal;HPM_P1;HPM_P2
2021/03/02 00:01:34;;;;;;;6.53;3.42;;;19.50;39.00;;;;;;5072965;28;20093;-62
2021/03/02 00:04:00;;;;;;;7.75;3.97;;;19.50;39.00;;;;;;5073951;28;20028;-62
2021/03/02 00:06:26;;;;;;;7.68;3.83;;;19.50;39.00;;;;;;5073850;28;20028;-63
2021/03/02 00:08:52;;;;;;;7.28;3.70;;;19.50;39.00;;;;;;5074089;28;20028;-62
2021/03/02 00:11:18;;;;;;;6.75;3.60;;;19.50;39.00;;;;;;5073661;28;20507;-62
2021/03/02 00:13:44;;;;;;;7.07;3.63;;;19.50;39.00;;;;;;5073980;28;20077;-62
2021/03/02 00:16:11;;;;;;;8.10;3.90;;;19.40;39.00;;;;;;5073858;28;20078;-62
2021/03/02 00:18:42;;;;;;;7.82;3.92;;;19.40;39.00;;;;;;5073877;28;20048;-62
2021/03/02 00:21:17;;;;;;;6.78;3.42;;;19.50;39.00;;;;;;5073649;28;20059;-62
2021/03/02 00:23:43;;;;;;;;;;;19.40;39.00;;;;;;5074563;28;20020;-62
2021/03/02 00:26:18;;;;;;;7.20;3.70;;;19.40;39.00;;;;;;5073262;28;20469;-62
2021/03/02 00:28:45;;;;;;;6.72;3.35;;;19.40;38.90;;;;;;5073750;28;20103;-62
2021/03/02 00:31:12;;;;;;;6.75;3.55;;;19.40;39.00;;;;;;5073613;28;20016;-62
2021/03/02 00:33:39;;;;;;;7.60;4.00;;;19.40;39.00;;;;;;5073859;28;20089;-62
2021/03/02 00:36:05;;;;;;;7.13;4.22;;;19.40;38.90;;;;;;5073605;28;20028;-62
2021/03/02 00:38:30;;;;;;;7.47;3.95;;;19.40;39.00;;;;;;5073949;28;20027;-62
2021/03/02 00:40:56;;;;;;;7.28;3.90;;;19.40;39.00;;;;;;5073446;28;20472;-62
2021/03/02 00:43:22;;;;;;;7.72;4.10;;;19.40;38.90;;;;;;5073505;28;20029;-62
2021/03/02 00:45:47;;;;;;;7.30;3.83;;;19.40;38.90;;;;;;5073500;28;20021;-62
2021/03/02 00:48:14;;;;;;;9.57;4.28;;;19.30;38.90;;;;;;5073351;28;20040;-62
2021/03/02 00:50:40;;;;;;;7.93;4.20;;;19.30;39.00;;;;;;5073879;28;20058;-62
2021/03/02 00:53:05;;;;;;;7.53;4.00;;;19.30;38.90;;;;;;5073587;28;20093;-62
2021/03/02 00:55:31;;;;;;;7.57;4.10;;;19.30;38.90;;;;;;5073507;28;20028;-62
2021/03/02 00:57:56;;;;;;;7.35;4.10;;;19.30;38.90;;;;;;5073568;28;20024;-62
2021/03/02 01:00:23;;;;;;;8.70;4.63;;;19.30;38.90;;;;;;5075449;28;20025;-62
2021/03/02 01:02:48;;;;;;;7.68;3.95;;;19.30;38.80;;;;;;5077829;28;20138;-62
2021/03/02 01:05:16;;;;;;;7.10;3.90;;;19.30;38.90;;;;;;5077699;28;20158;-62
2021/03/02 01:07:42;;;;;;;7.53;3.95;;;19.20;38.90;;;;;;5076598;28;20036;-62
2021/03/02 01:10:09;;;;;;;7.65;4.10;;;19.20;38.90;;;;;;5077672;28;20028;-62
2021/03/02 01:12:34;;;;;;;8.00;4.35;;;19.30;38.90;;;;;;5077494;28;20095;-62
2021/03/02 01:15:02;;;;;;;7.65;3.92;;;19.20;38.70;;;;;;5077451;28;20103;-62
2021/03/02 01:17:28;;;;;;;8.50;4.43;;;19.20;38.80;;;;;;5077710;28;20165;-62
2021/03/02 01:19:53;;;;;;;7.63;3.95;;;19.20;38.80;;;;;;5077690;28;20047;-62
2021/03/02 01:22:19;;;;;;;7.00;4.03;;;19.20;38.70;;;;;;5077389;28;20036;-62
2021/03/02 01:24:45;;;;;;;7.30;4.18;;;19.20;38.80;;;;;;5077256;28;20105;-62
2021/03/02 01:27:12;;;;;;;7.20;4.07;;;19.10;38.80;;;;;;5077131;28;20021;-62
2021/03/02 01:29:37;;;;;;;7.45;4.18;;;19.10;38.80;;;;;;5077575;28;20021;-62
2021/03/02 01:32:03;;;;;;;7.30;4.03;;;19.10;38.80;;;;;;5079399;28;20035;-63
2021/03/02 01:34:28;;;;;;;7.70;4.05;;;19.10;38.90;;;;;;5081037;28;20039;-62
2021/03/02 01:36:54;;;;;;;8.25;4.20;;;19.10;38.80;;;;;;5077475;28;20476;-62
2021/03/02 01:39:20;;;;;;;7.68;4.28;;;19.10;38.80;;;;;;5077028;28;20286;-62
2021/03/02 01:41:58;;;;;;;7.10;3.50;;;19.10;38.70;;;;;;5076862;28;20036;-61
2021/03/02 01:44:26;;;;;;;8.05;3.97;;;19.10;38.90;;;;;;5075673;28;20029;-62
2021/03/02 01:46:51;;;;;;;8.25;4.18;;;19.10;38.80;;;;;;5076963;28;20028;-62
2021/03/02 01:49:18;;;;;;;7.60;3.65;;;19.10;38.80;;;;;;5077180;28;20376;-62
2021/03/02 01:51:44;;;;;;;7.15;3.60;;;19.10;38.80;;;;;;5076891;28;20024;-62
2021/03/02 01:54:12;;;;;;;7.28;3.92;;;19.00;38.70;;;;;;5076831;28;20024;-62
2021/03/02 01:56:38;;;;;;;7.18;4.10;;;19.00;38.80;;;;;;5076114;28;20103;-62
2021/03/02 01:59:04;;;;;;;7.43;4.25;;;19.10;38.80;;;;;;5076794;28;20083;-62
2021/03/02 02:01:30;;;;;;;7.45;3.63;;;19.00;38.80;;;;;;5076382;28;20080;-62
2021/03/02 02:04:11;;;;;;;8.07;3.88;;;19.00;38.80;;;;;;5076475;28;20028;-61
2021/03/02 02:06:58;;;;;;;6.03;3.38;;;19.00;38.80;;;;;;5076679;28;20040;-62
2021/03/02 02:09:35;;;;;;;7.68;4.07;;;19.00;38.90;;;;;;5076234;28;20023;-63
2021/03/02 02:12:07;;;;;;;7.90;3.65;;;19.00;38.80;;;;;;5076406;28;20099;-62
2021/03/02 02:14:50;;;;;;;7.68;4.20;;;19.00;38.70;;;;;;5076249;28;20060;-62
2021/03/02 02:17:23;;;;;;;6.80;3.70;;;19.00;38.80;;;;;;5076138;28;20095;-62
2021/03/02 02:20:01;;;;;;;7.82;3.47;;;19.00;38.90;;;;;;5076090;28;20036;-62
2021/03/02 02:22:47;;;;;;;6.70;3.60;;;19.00;38.90;;;;;;5076415;28;20046;-62
2021/03/02 02:25:33;;;;;;;7.03;3.78;;;19.00;38.90;;;;;;5064774;28;20132;-62
2021/03/02 02:28:01;;;;;;;7.72;3.92;;;19.00;38.90;;;;;;5076085;28;20036;-62
2021/03/02 02:30:28;;;;;;;6.10;3.42;;;19.00;38.80;;;;;;5075910;28;20111;-62
2021/03/02 02:32:55;;;;;;;7.53;3.65;;;19.00;38.90;;;;;;5076045;28;20070;-62
2021/03/02 02:35:23;;;;;;;6.80;3.72;;;19.00;38.90;;;;;;5076289;28;20427;-62
2021/03/02 02:37:51;;;;;;;7.90;3.75;;;19.00;38.80;;;;;;5076156;28;20025;-63
2021/03/02 02:40:18;;;;;;;7.43;3.65;;;19.00;38.90;;;;;;5076028;28;20037;-63
2021/03/02 02:42:48;;;;;;;8.10;3.70;;;19.00;38.80;;;;;;5075928;28;20024;-62
2021/03/02 02:45:15;;;;;;;6.57;3.40;;;19.00;38.90;;;;;;5075829;28;20068;-62
2021/03/02 02:47:42;;;;;;;7.43;3.75;;;19.00;38.80;;;;;;5075645;28;20036;-62
2021/03/02 02:50:08;;;;;;;7.50;3.97;;;19.00;38.80;;;;;;5076321;28;20103;-61
2021/03/02 02:52:34;;;;;;;6.30;3.45;;;19.00;38.90;;;;;;5075819;28;20035;-62
2021/03/02 02:55:02;;;;;;;8.00;3.75;;;18.90;38.80;;;;;;5075910;28;20017;-62
2021/03/02 02:57:30;;;;;;;7.03;3.63;;;19.00;38.80;;;;;;5075936;28;20058;-62
2021/03/02 02:59:58;;;;;;;6.40;3.33;;;19.00;38.90;;;;;;5075634;28;20042;-62
2021/03/02 03:02:27;;;;;;;6.88;3.75;;;18.90;38.80;;;;;;5076040;28;20028;-62
2021/03/02 03:04:58;;;;;;;7.05;3.30;;;18.90;38.80;;;;;;5075752;28;20025;-62
2021/03/02 03:07:33;;;;;;;5.60;3.15;;;18.90;38.80;;;;;;5075363;28;20102;-62
2021/03/02 03:10:01;;;;;;;6.55;3.40;;;18.90;38.80;;;;;;5075142;28;20464;-62
2021/03/02 03:12:29;;;;;;;6.90;3.65;;;18.90;38.80;;;;;;5074998;28;20028;-62
2021/03/02 03:15:01;;;;;;;7.65;3.50;;;18.90;38.80;;;;;;5075120;28;20468;-62
2021/03/02 03:17:30;;;;;;;6.78;3.33;;;18.90;38.80;;;;;;5074845;28;20395;-62
2021/03/02 03:19:57;;;;;;;6.55;3.42;;;18.90;38.70;;;;;;5074808;28;20027;-62
2021/03/02 03:22:23;;;;;;;6.20;3.30;;;18.90;38.80;;;;;;5074694;28;20496;-62
2021/03/02 03:24:49;;;;;;;6.07;2.95;;;18.90;38.70;;;;;;5075182;28;20029;-62
2021/03/02 03:27:16;;;;;;;6.22;3.50;;;18.90;38.70;;;;;;5075272;28;20038;-62
2021/03/02 03:29:44;;;;;;;5.75;3.13;;;18.90;38.70;;;;;;5074302;28;20020;-62
2021/03/02 03:32:10;;;;;;;6.07;3.38;;;18.90;38.70;;;;;;5075233;28;20067;-62
2021/03/02 03:34:39;;;;;;;6.10;3.25;;;18.90;38.70;;;;;;5074886;28;20187;-62
2021/03/02 03:37:04;;;;;;;6.68;3.45;;;18.90;38.70;;;;;;5073827;28;20070;-62
2021/03/02 03:39:30;;;;;;;7.13;3.75;;;18.90;38.70;;;;;;5075086;28;20078;-63
2021/03/02 03:41:55;;;;;;;6.38;3.50;;;18.90;38.70;;;;;;5074067;28;20040;-62
2021/03/02 03:44:21;;;;;;;6.80;3.28;;;18.90;38.70;;;;;;5074578;28;20152;-62
2021/03/02 03:46:47;;;;;;;6.47;3.58;;;18.90;38.70;;;;;;5074565;28;20033;-62
2021/03/02 03:49:12;;;;;;;6.50;3.28;;;18.90;38.70;;;;;;5074208;28;20074;-62
2021/03/02 03:51:39;;;;;;;6.07;3.22;;;18.90;38.70;;;;;;5074540;28;20040;-62
2021/03/02 03:54:06;;;;;;;6.53;3.40;;;18.90;38.70;;;;;;5074518;28;20108;-62
2021/03/02 03:56:34;;;;;;;8.35;3.53;;;18.80;38.70;;;;;;5074668;28;20037;-62
2021/03/02 03:59:01;;;;;;;6.00;3.30;;;18.90;38.60;;;;;;5074331;28;20038;-63
2021/03/02 04:01:27;;;;;;;6.28;3.25;;;18.90;38.70;;;;;;5074430;28;20032;-62
2021/03/02 04:03:54;;;;;;;6.65;3.47;;;18.80;38.60;;;;;;5074570;28;20021;-62
2021/03/02 04:06:19;;;;;;;6.50;3.33;;;18.80;38.60;;;;;;5073105;28;20029;-62
2021/03/02 04:08:46;;;;;;;5.65;3.08;;;18.90;38.70;;;;;;5073978;28;20021;-62
2021/03/02 04:11:12;;;;;;;7.50;3.17;;;18.90;38.70;;;;;;5074558;28;20024;-62
2021/03/02 04:13:37;;;;;;;5.57;2.85;;;18.80;38.70;;;;;;5074586;28;20032;-62
2021/03/02 04:16:03;;;;;;;6.85;3.75;;;18.80;38.70;;;;;;5074079;28;20028;-62
2021/03/02 04:18:29;;;;;;;6.47;3.50;;;18.80;38.70;;;;;;5073904;28;20044;-62
2021/03/02 04:20:55;;;;;;;5.95;3.03;;;18.80;38.70;;;;;;5074188;28;20064;-62
2021/03/02 04:23:21;;;;;;;6.35;3.53;;;18.80;38.60;;;;;;5074123;28;20033;-62
2021/03/02 04:25:46;;;;;;;6.93;3.75;;;18.80;38.50;;;;;;5073971;28;20021;-62
2021/03/02 04:28:12;;;;;;;6.25;3.30;;;18.80;38.60;;;;;;5074127;28;20029;-62
2021/03/02 04:30:37;;;;;;;6.60;3.70;;;18.80;38.60;;;;;;5074167;28;20141;-62
2021/03/02 04:33:03;;;;;;;6.35;3.35;;;18.80;38.60;;;;;;5074008;28;20427;-62
2021/03/02 04:35:29;;;;;;;5.82;3.10;;;18.80;38.60;;;;;;5073000;28;20063;-62
2021/03/02 04:37:55;;;;;;;5.97;3.13;;;18.80;38.60;;;;;;5073688;28;20024;-62
2021/03/02 04:40:21;;;;;;;6.03;3.45;;;18.80;38.70;;;;;;5074108;28;20077;-61
2021/03/02 04:42:47;;;;;;;6.00;3.03;;;18.80;38.60;;;;;;5073866;28;20062;-62
2021/03/02 04:45:13;;;;;;;6.70;3.47;;;18.80;38.60;;;;;;5073642;28;20456;-62
2021/03/02 04:47:44;;;;;;;6.97;3.33;;;18.80;38.40;;;;;;5074159;28;20028;-61
2021/03/02 04:50:11;;;;;;;6.95;3.47;;;18.80;38.50;;;;;;5072884;28;20025;-62
2021/03/02 04:52:36;;;;;;;6.63;3.10;;;18.80;38.60;;;;;;5073742;28;20108;-61
2021/03/02 04:55:03;;;;;;;6.00;3.20;;;18.80;38.50;;;;;;5073599;28;20430;-61
2021/03/02 04:57:29;;;;;;;6.60;3.20;;;18.80;38.60;;;;;;5073759;28;20025;-62
2021/03/02 04:59:54;;;;;;;6.50;3.30;;;18.70;38.50;;;;;;5073929;28;20102;-61
2021/03/02 05:02:20;;;;;;;6.25;3.15;;;18.70;38.50;;;;;;5073596;28;20048;-61
2021/03/02 05:04:45;;;;;;;5.82;3.03;;;18.70;38.50;;;;;;5073349;28;20079;-62
2021/03/02 05:07:11;;;;;;;7.00;3.58;;;18.70;38.50;;;;;;5073543;28;20024;-61
2021/03/02 05:09:36;;;;;;;6.72;3.45;;;18.70;38.50;;;;;;5073709;28;20020;-61
2021/03/02 05:12:02;;;;;;;5.55;3.20;;;18.70;38.50;;;;;;5073764;28;20063;-61
2021/03/02 05:14:28;;;;;;;6.03;3.20;;;18.70;38.50;;;;;;5073505;28;20035;-62
2021/03/02 05:16:53;;;;;;;6.13;3.30;;;18.80;38.50;;;;;;5073100;28;20090;-61
2021/03/02 05:19:19;;;;;;;7.15;3.35;;;18.80;38.40;;;;;;5073671;28;20037;-61
2021/03/02 05:21:45;;;;;;;6.28;3.20;;;18.80;38.40;;;;;;5073358;28;20064;-62
2021/03/02 05:24:11;;;;;;;5.93;3.03;;;18.80;38.30;;;;;;5073644;28;20028;-63
2021/03/02 05:26:36;;;;;;;5.18;2.65;;;18.90;38.30;;;;;;5073343;28;20040;-61
2021/03/02 05:29:02;;;;;;;5.57;2.92;;;18.90;38.30;;;;;;5073433;28;20036;-62
2021/03/02 05:31:27;;;;;;;5.32;2.85;;;19.00;38.20;;;;;;5073004;28;20154;-61
2021/03/02 05:33:54;;;;;;;5.20;2.95;;;19.00;38.20;;;;;;5073144;28;20036;-62
2021/03/02 05:36:19;;;;;;;5.82;3.17;;;19.00;38.10;;;;;;5073466;28;20384;-62
2021/03/02 05:38:45;;;;;;;6.20;3.13;;;19.00;38.20;;;;;;5072144;28;20027;-62
2021/03/02 05:41:11;;;;;;;6.05;3.05;;;19.10;38.00;;;;;;5073410;28;20149;-62
2021/03/02 05:43:42;;;;;;;5.60;3.00;;;19.10;38.00;;;;;;5073764;28;20025;-61
2021/03/02 05:46:08;;;;;;;5.90;3.22;;;19.10;38.00;;;;;;5074183;28;20039;-61
2021/03/02 05:48:34;;;;;;;5.72;2.70;;;19.10;38.00;;;;;;5076828;28;20107;-62
2021/03/02 05:51:00;;;;;;;4.88;2.42;;;19.20;37.90;;;;;;5077674;28;20055;-61
2021/03/02 05:53:26;;;;;;;5.53;2.67;;;19.20;37.80;;;;;;5078111;28;20029;-62
2021/03/02 05:55:53;;;;;;;5.47;2.63;;;19.20;37.90;;;;;;5078452;28;20032;-62
2021/03/02 05:58:18;;;;;;;5.30;2.80;;;19.20;37.80;;;;;;5083411;28;20025;-62
2021/03/02 06:00:44;;;;;;;5.88;2.83;;;19.30;37.80;;;;;;5077045;28;20036;-61
2021/03/02 06:03:10;;;;;;;5.90;2.90;;;19.30;37.80;;;;;;5077118;28;20054;-62
2021/03/02 06:05:37;;;;;;;6.05;2.75;;;19.30;37.60;;;;;;5076654;28;20612;-62
2021/03/02 06:08:06;;;;;;;6.63;2.92;;;19.30;37.70;;;;;;5076423;28;20020;-62
2021/03/02 06:10:33;;;;;;;5.28;2.70;;;19.30;37.70;;;;;;5076383;28;20032;-61
2021/03/02 06:12:59;;;;;;;6.38;2.88;;;19.40;37.60;;;;;;5076327;28;20095;-62
2021/03/02 06:15:27;;;;;;;4.97;2.67;;;19.40;37.70;;;;;;5076191;28;20025;-62
2021/03/02 06:18:19;;;;;;;7.22;3.22;;;19.40;37.70;;;;;;5076464;28;20063;-62
2021/03/02 06:20:45;;;;;;;6.60;2.92;;;19.40;37.60;;;;;;5076300;28;20036;-62
2021/03/02 06:23:19;;;;;;;5.65;2.70;;;19.40;37.50;;;;;;5076208;28;20066;-62
2021/03/02 06:25:45;;;;;;;6.35;3.00;;;19.50;37.50;;;;;;5076208;28;20395;-62
2021/03/02 06:28:11;;;;;;;5.47;2.83;;;19.50;37.40;;;;;;5076419;28;20104;-62
2021/03/02 06:30:37;;;;;;;5.32;2.88;;;19.50;37.30;;;;;;5076247;28;20099;-62
2021/03/02 06:33:03;;;;;;;5.10;2.85;;;19.50;37.40;;;;;;5076218;28;20024;-62
2021/03/02 06:35:34;;;;;;;6.18;3.00;;;19.50;37.30;;;;;;5075939;28;20128;-62
2021/03/02 06:38:00;;;;;;;6.85;3.33;;;19.50;37.30;;;;;;5075961;28;20029;-62
2021/03/02 06:40:48;;;;;;;5.82;2.72;;;19.50;37.20;;;;;;5076258;28;20357;-61
2021/03/02 06:43:37;;;;;;;6.38;3.00;;;19.60;37.20;;;;;;5075895;28;20040;-62
2021/03/02 06:46:07;;;;;;;5.00;2.50;;;19.50;37.20;;;;;;5075740;28;20518;-62
2021/03/02 06:48:51;;;;;;;5.65;2.58;;;19.60;37.30;;;;;;5075686;28;20029;-62
2021/03/02 06:51:33;;;;;;;5.38;2.83;;;19.60;37.10;;;;;;5076213;28;20078;-62
2021/03/02 06:54:03;;;;;;;5.45;2.53;;;19.60;37.30;;;;;;5075629;28;20078;-62
2021/03/02 06:56:28;;;;;;;5.30;2.60;;;19.60;37.30;;;;;;5075564;28;20024;-62
2021/03/02 06:59:13;;;;;;;5.85;2.75;;;19.70;37.20;;;;;;5074353;28;20090;-62
2021/03/02 07:01:40;;;;;;;6.18;2.53;;;19.70;37.20;;;;;;5075014;28;20503;-62
2021/03/02 07:04:09;;;;;;;5.78;2.88;;;19.70;37.10;;;;;;5078645;28;20036;-63
2021/03/02 07:06:39;;;;;;;5.25;2.58;;;19.70;37.20;;;;;;5084101;28;20028;-62
2021/03/02 07:09:06;;;;;;;5.38;2.25;;;19.70;37.10;;;;;;5078272;28;20031;-63
2021/03/02 07:11:35;;;;;;;5.57;2.83;;;19.70;37.10;;;;;;5075702;28;20098;-63
2021/03/02 07:14:02;;;;;;;6.43;3.13;;;19.80;37.10;;;;;;5075626;28;20052;-63
2021/03/02 07:16:29;;;;;;;6.38;2.60;;;19.80;37.00;;;;;;5075513;28;20029;-63
2021/03/02 07:18:58;;;;;;;5.22;2.45;;;19.80;37.00;;;;;;5075630;28;20075;-63
2021/03/02 07:21:24;;;;;;;4.60;2.50;;;19.80;36.90;;;;;;5075557;28;20040;-63
2021/03/02 07:23:53;;;;;;;4.65;2.30;;;19.80;37.00;;;;;;5075571;28;20489;-63
2021/03/02 07:26:19;;;;;;;5.03;2.85;;;19.80;36.90;;;;;;5076762;28;20033;-63
2021/03/02 07:28:45;;;;;;;5.65;2.80;;;19.90;36.80;;;;;;5083187;28;20392;-63
2021/03/02 07:31:10;;;;;;;6.72;2.88;;;19.90;36.90;;;;;;5075288;28;20025;-63
2021/03/02 07:33:40;;;;;;;4.85;2.72;;;19.90;36.80;;;;;;5075260;28;20048;-63
2021/03/02 07:36:06;;;;;;;4.88;2.65;;;19.90;37.00;;;;;;5074526;28;20185;-63
2021/03/02 07:38:32;;;;;;;4.85;2.30;;;19.90;36.90;;;;;;5074703;28;20475;-63
2021/03/02 07:40:58;;;;;;;4.68;2.38;;;20.00;36.80;;;;;;5074705;28;20036;-63
2021/03/02 07:43:37;;;;;;;4.95;2.58;;;20.00;36.80;;;;;;5075128;28;20460;-63
2021/03/02 07:46:28;;;;;;;6.65;2.42;;;20.00;36.70;;;;;;5073301;28;20490;-63
2021/03/02 07:48:54;;;;;;;5.07;2.60;;;20.00;36.70;;;;;;5063505;28;20040;-63
2021/03/02 07:51:21;;;;;;;5.28;2.40;;;20.00;36.70;;;;;;5074004;28;20033;-63
2021/03/02 07:53:50;;;;;;;5.45;2.47;;;20.10;36.60;;;;;;5074474;28;20035;-63
2021/03/02 07:56:22;;;;;;;4.00;2.13;;;20.00;36.50;;;;;;5074718;28;20024;-63
2021/03/02 07:59:09;;;;;;;5.28;2.40;;;20.10;36.60;;;;;;5074956;28;20024;-63
2021/03/02 08:01:34;;;;;;;5.97;2.72;;;20.20;36.50;;;;;;5074584;28;20062;-63
2021/03/02 08:04:15;;;;;;;7.85;2.90;;;20.20;36.50;;;;;;5073994;28;20031;-63
2021/03/02 08:06:49;;;;;;;4.97;2.55;;;20.20;36.50;;;;;;5073763;28;20024;-63
2021/03/02 08:09:21;;;;;;;5.47;2.50;;;20.20;36.50;;;;;;5073045;28;20024;-63
2021/03/02 08:11:47;;;;;;;5.07;2.47;;;20.20;36.50;;;;;;5074350;28;20029;-63
2021/03/02 08:14:18;;;;;;;4.70;2.15;;;20.20;36.40;;;;;;5073267;28;20043;-63
2021/03/02 08:17:04;;;;;;;6.80;2.70;;;20.30;36.40;;;;;;5074604;28;20036;-63
2021/03/02 08:19:50;;;;;;;6.05;2.50;;;20.30;36.40;;;;;;5074543;28;20044;-62
2021/03/02 08:22:19;;;;;;;6.00;2.78;;;20.30;36.30;;;;;;5073951;28;20037;-62
2021/03/02 08:24:48;;;;;;;5.07;2.30;;;20.30;36.30;;;;;;5073983;28;20039;-63
2021/03/02 08:27:14;;;;;;;7.45;2.53;;;20.30;36.40;;;;;;5073990;28;20029;-63
2021/03/02 08:29:52;;;;;;;5.10;2.65;;;20.40;36.30;;;;;;5074437;28;20103;-63
2021/03/02 08:32:18;;;;;;;4.88;2.38;;;20.40;36.30;;;;;;5073885;28;20032;-63
2021/03/02 08:34:45;;;;;;;5.50;2.47;;;20.40;36.20;;;;;;5074169;28;20104;-64
2021/03/02 08:37:11;;;;;;;8.10;2.63;;;20.40;36.30;;;;;;5073994;28;20100;-63
2021/03/02 08:39:36;;;;;;;7.25;2.42;;;20.40;36.20;;;;;;5074184;28;20530;-63
2021/03/02 08:42:06;;;;;;;5.72;2.70;;;20.40;36.40;;;;;;5073889;28;20041;-63
2021/03/02 08:44:32;;;;;;;5.25;2.65;;;20.50;36.30;;;;;;5073976;28;20035;-63
2021/03/02 08:46:58;;;;;;;6.70;2.35;;;20.50;36.30;;;;;;5073489;28;20024;-63
2021/03/02 08:49:25;;;;;;;5.25;2.55;;;20.50;36.30;;;;;;5073793;28;20056;-63
2021/03/02 08:52:01;;;;;;;4.72;2.40;;;20.50;36.20;;;;;;5073640;28;20388;-63
2021/03/02 08:54:27;;;;;;;4.53;2.35;;;20.50;36.30;;;;;;5073631;28;20056;-62
2021/03/02 08:57:05;;;;;;;10.35;2.42;;;20.50;36.20;;;;;;5076164;28;20384;-63
2021/03/02 08:59:31;;;;;;;3.67;2.00;;;20.50;36.20;;;;;;5077227;28;20044;-63
2021/03/02 09:01:57;;;;;;;5.40;2.50;;;20.50;36.30;;;;;;5072691;28;20036;-63
2021/03/02 09:04:30;;;;;;;5.07;2.50;;;20.50;36.30;;;;;;5076417;28;20067;-63
2021/03/02 09:06:55;;;;;;;6.82;2.50;;;20.50;36.20;;;;;;5075145;28;20032;-62
2021/03/02 09:09:24;;;;;;;5.22;2.20;;;20.60;36.20;;;;;;5074264;28;20028;-63
2021/03/02 09:11:54;;;;;;;5.25;2.60;;;20.60;36.20;;;;;;5072941;28;20028;-63
2021/03/02 09:14:25;;;;;;;5.70;2.45;;;20.60;36.30;;;;;;5074165;28;20017;-63
2021/03/02 09:16:58;;;;;;;5.13;2.28;;;20.60;36.20;;;;;;5073840;28;20103;-63
2021/03/02 09:19:29;;;;;;;5.05;2.67;;;20.60;36.10;;;;;;5074245;28;20037;-63
2021/03/02 09:22:01;;;;;;;5.47;2.30;;;20.60;36.20;;;;;;5077271;28;20036;-67
2021/03/02 09:24:28;;;;;;;5.30;2.47;;;20.70;36.20;;;;;;5084270;28;20073;-63
2021/03/02 09:27:00;;;;;;;5.15;2.60;;;20.70;36.20;;;;;;5085233;28;20392;-62
2021/03/02 09:29:32;;;;;;;5.18;2.40;;;20.70;36.10;;;;;;5086198;28;20020;-63
2021/03/02 09:32:00;;;;;;;6.13;2.33;;;20.70;36.00;;;;;;5085766;28;20104;-63
2021/03/02 09:34:34;;;;;;;5.35;2.30;;;20.70;36.00;;;;;;5084959;28;20098;-63
2021/03/02 09:37:04;;;;;;;5.15;2.80;;;20.80;36.10;;;;;;5079716;28;20487;-63
2021/03/02 09:39:30;;;;;;;5.78;2.33;;;20.80;36.00;;;;;;5076200;28;20111;-63
2021/03/02 09:41:56;;;;;;;5.85;2.53;;;20.80;36.00;;;;;;5075898;28;20032;-62
2021/03/02 09:44:24;;;;;;;4.78;2.33;;;20.80;36.10;;;;;;5076093;28;20073;-63
2021/03/02 09:46:53;;;;;;;5.57;2.75;;;20.80;36.00;;;;;;5074868;28;20494;-63
2021/03/02 09:49:42;;;;;;;5.35;2.40;;;20.90;35.90;;;;;;5076032;28;20023;-63
2021/03/02 09:52:30;;;;;;;5.50;2.42;;;20.90;35.90;;;;;;5076052;28;20060;-63
2021/03/02 09:55:11;;;;;;;6.00;2.40;;;21.00;35.90;;;;;;5075939;28;20063;-63
2021/03/02 09:58:00;;;;;;;5.00;2.10;;;21.00;35.80;;;;;;5077211;28;20029;-63
2021/03/02 10:00:30;;;;;;;4.82;2.25;;;21.00;35.90;;;;;;5084117;28;20021;-63
2021/03/02 10:02:58;;;;;;;5.57;2.60;;;21.00;35.80;;;;;;5083788;28;20036;-63
2021/03/02 10:05:38;;;;;;;7.40;2.50;;;21.10;35.80;;;;;;5084575;28;20063;-63
2021/03/02 10:08:20;;;;;;;4.78;2.35;;;21.10;35.80;;;;;;5085123;28;20076;-63
2021/03/02 10:10:46;;;;;;;4.82;2.22;;;21.10;35.80;;;;;;5084736;28;20056;-64
2021/03/02 10:13:11;;;;;;;4.43;2.28;;;21.20;35.80;;;;;;5082357;28;20017;-63
2021/03/02 10:15:37;;;;;;;5.05;2.30;;;21.20;35.70;;;;;;5077513;28;20067;-63
2021/03/02 10:18:27;;;;;;;4.20;2.10;;;21.20;35.60;;;;;;5077454;28;20633;-63
2021/03/02 10:21:08;;;;;;;4.32;2.05;;;21.30;35.70;;;;;;5077567;28;20090;-64
2021/03/02 10:23:40;;;;;;;4.20;2.40;;;21.30;35.50;;;;;;5077590;28;20029;-63
2021/03/02 10:26:06;;;;;;;4.25;2.33;;;21.30;35.60;;;;;;5077817;28;20032;-63
2021/03/02 10:28:32;;;;;;;6.32;2.22;;;21.40;35.60;;;;;;5077497;28;20025;-63
2021/03/02 10:30:59;;;;;;;4.35;2.08;;;21.50;35.50;;;;;;5078890;28;20031;-63
2021/03/02 10:33:25;;;;;;;4.25;1.95;;;21.50;35.50;;;;;;5078678;28;20029;-64
2021/03/02 10:35:54;;;;;;;5.85;2.50;;;21.50;35.50;;;;;;5084442;28;20031;-64
2021/03/02 10:38:20;;;;;;;4.93;2.30;;;21.50;35.40;;;;;;5083850;28;20080;-63
2021/03/02 10:40:46;;;;;;;4.65;2.03;;;21.50;35.40;;;;;;5083858;28;20056;-64
2021/03/02 10:43:12;;;;;;;4.70;1.80;;;21.60;35.40;;;;;;5082151;28;20048;-63
2021/03/02 10:45:37;;;;;;;4.57;2.25;;;21.60;35.40;;;;;;5084310;28;20031;-64
2021/03/02 10:48:04;;;;;;;4.18;1.80;;;21.70;35.30;;;;;;5081449;28;20368;-63
2021/03/02 10:50:30;;;;;;;4.75;2.33;;;21.70;35.20;;;;;;5078145;28;20115;-63
2021/03/02 10:52:56;;;;;;;4.43;2.25;;;21.70;35.20;;;;;;5078564;28;20071;-63
2021/03/02 10:55:22;;;;;;;7.85;2.30;;;21.80;35.20;;;;;;5075973;28;20091;-63
2021/03/02 10:57:48;;;;;;;4.95;2.28;;;21.80;35.20;;;;;;5077178;28;20017;-63
2021/03/02 11:00:14;;;;;;;4.30;1.77;;;21.80;35.20;;;;;;5076878;28;20036;-63
2021/03/02 11:02:40;;;;;;;4.53;2.20;;;21.80;35.20;;;;;;5077145;28;20085;-63
2021/03/02 11:05:06;;;;;;;4.85;2.25;;;21.90;35.10;;;;;;5076767;28;20016;-63
2021/03/02 11:07:32;;;;;;;4.10;1.92;;;21.90;35.10;;;;;;5076455;28;20029;-63
2021/03/02 11:09:57;;;;;;;4.75;2.20;;;22.00;35.00;;;;;;5076527;28;20539;-63
2021/03/02 11:12:23;;;;;;;4.15;1.67;;;22.00;35.00;;;;;;5076422;28;20104;-63
2021/03/02 11:14:48;;;;;;;3.72;1.90;;;22.00;34.90;;;;;;5076455;28;20111;-64
2021/03/02 11:17:14;;;;;;;7.03;1.92;;;22.10;35.00;;;;;;5075807;28;20063;-64
2021/03/02 11:19:39;;;;;;;3.88;1.77;;;22.10;34.90;;;;;;5075637;28;20031;-63
2021/03/02 11:22:05;;;;;;;4.53;1.98;;;22.20;34.80;;;;;;5076828;28;20032;-63
2021/03/02 11:24:30;;;;;;;4.15;2.00;;;22.20;34.80;;;;;;5074492;28;20025;-63
2021/03/02 11:26:56;;;;;;;5.43;2.55;;;22.20;34.80;;;;;;5075720;28;20111;-63
2021/03/02 11:29:21;;;;;;;4.82;2.38;;;22.30;34.70;;;;;;5074948;28;20067;-63
2021/03/02 11:31:47;;;;;;;3.58;1.85;;;22.30;34.70;;;;;;5075514;28;20112;-63
2021/03/02 11:34:12;;;;;;;4.82;2.38;;;22.40;34.70;;;;;;5075650;28;20059;-63
2021/03/02 11:36:38;;;;;;;5.75;2.10;;;22.40;34.60;;;;;;5075253;28;20071;-63
2021/03/02 11:39:04;;;;;;;3.35;1.95;;;22.40;34.60;;;;;;5075255;28;20569;-62
2021/03/02 11:41:30;;;;;;;5.70;2.20;;;22.50;34.50;;;;;;5074870;28;20033;-62
2021/03/02 11:43:55;;;;;;;3.80;2.10;;;22.60;34.50;;;;;;5074941;28;20027;-63
2021/03/02 11:46:21;;;;;;;4.63;1.80;;;22.60;34.40;;;;;;5075306;28;20035;-64
2021/03/02 11:48:46;;;;;;;4.25;2.03;;;22.70;34.30;;;;;;5074747;28;20025;-64
2021/03/02 11:51:12;;;;;;;4.80;2.20;;;22.70;34.30;;;;;;5075426;28;20403;-64
2021/03/02 11:53:37;;;;;;;4.95;2.28;;;22.80;34.20;;;;;;5074579;28;20025;-64
2021/03/02 11:56:04;;;;;;;4.25;2.22;;;22.80;34.10;;;;;;5074588;28;20031;-63
2021/03/02 11:58:29;;;;;;;4.35;1.95;;;22.90;34.10;;;;;;5074295;28;20024;-63
2021/03/02 12:00:55;;;;;;;4.70;2.03;;;22.90;34.10;;;;;;5073845;28;20017;-63
2021/03/02 12:03:21;;;;;;;4.47;1.98;;;23.00;33.90;;;;;;5074071;28;20035;-63
2021/03/02 12:05:47;;;;;;;4.13;1.83;;;23.00;33.90;;;;;;5074463;28;20048;-63
2021/03/02 12:08:13;;;;;;;4.72;1.92;;;23.00;33.90;;;;;;5074046;28;20067;-63
2021/03/02 12:10:39;;;;;;;3.72;1.85;;;23.10;33.90;;;;;;5073791;28;20521;-63
2021/03/02 12:13:05;;;;;;;3.47;1.80;;;23.10;33.80;;;;;;5072403;28;20073;-63
2021/03/02 12:15:30;;;;;;;5.57;2.20;;;23.20;33.70;;;;;;5073985;28;20484;-63
2021/03/02 12:17:56;;;;;;;4.10;1.90;;;23.20;33.70;;;;;;5072496;28;20051;-63
2021/03/02 12:20:21;;;;;;;3.63;1.80;;;23.20;33.70;;;;;;5073619;28;20149;-63
2021/03/02 12:22:48;;;;;;;5.85;1.92;;;23.10;33.70;;;;;;5073918;28;20055;-63
2021/03/02 12:25:14;;;;;;;3.47;1.63;;;23.10;33.80;;;;;;5073884;28;20020;-63
2021/03/02 12:27:39;;;;;;;3.72;1.70;;;23.10;33.90;;;;;;5073589;28;20539;-63
2021/03/02 12:30:06;;;;;;;3.92;2.00;;;23.00;34.00;;;;;;5073594;28;20099;-64
2021/03/02 12:32:32;;;;;;;4.07;1.80;;;23.00;34.10;;;;;;5073446;28;20038;-63
2021/03/02 12:34:58;;;;;;;3.53;1.58;;;22.90;34.20;;;;;;5074064;28;20021;-63
2021/03/02 12:37:23;;;;;;;3.70;1.70;;;22.90;34.30;;;;;;5073960;28;20033;-63
2021/03/02 12:39:49;;;;;;;4.32;1.80;;;22.80;34.40;;;;;;5073452;28;20480;-63
2021/03/02 12:42:14;;;;;;;2.90;1.50;;;22.80;34.40;;;;;;5073749;28;20028;-63
2021/03/02 12:44:40;;;;;;;5.10;2.20;;;22.80;34.40;;;;;;5074299;28;20456;-63
2021/03/02 12:47:05;;;;;;;4.05;2.00;;;22.80;34.50;;;;;;5076675;28;20031;-63
2021/03/02 12:49:31;;;;;;;5.63;2.10;;;22.80;34.50;;;;;;5074116;28;20025;-63
2021/03/02 12:51:57;;;;;;;3.75;1.80;;;22.70;34.60;;;;;;5072923;28;20028;-64
2021/03/02 12:54:22;;;;;;;3.80;1.85;;;22.70;34.60;;;;;;5073872;28;20036;-63